sensor_id;sensor_type;location;lat;lon;timestamp;P1;durP1;ratioP1;P2;durP2;ratioP2
16928;SDS011;8581;47.334;11.190;2022-12-07T00:01:53;3.67;;;3.33;;
16928;SDS011;8581;47.334;11.190;2022-12-07T00:04:24;3.53;;;3.23;;
16928;SDS011;8581;47.334;11.190;2022-12-07T00:06:56;3.60;;;3.23;;
16928;SDS011;8581;47.334;11.190;2022-12-07T00:09:27;3.97;;;3.57;;
16928;SDS011;8581;47.334;11.190;2022-12-07T00:11:59;3.33;;;3.00;;
16928;SDS011;8581;47.334;11.190;2022-12-07T00:14:31;4.73;;;3.43;;
16928;SDS011;8581;47.334;11.190;2022-12-07T00:17:02;3.70;;;3.40;;
16928;SDS011;8581;47.334;11.190;2022-12-07T00:19:34;3.83;;;3.10;;
16928;SDS011;8581;47.334;11.190;2022-12-07T00:22:05;3.10;;;2.80;;
16928;SDS011;8581;47.334;11.190;2022-12-07T00:24:37;3.87;;;3.10;;
16928;SDS011;8581;47.334;11.190;2022-12-07T00:27:09;4.73;;;3.03;;
16928;SDS011;8581;47.334;11.190;2022-12-07T00:29:40;3.60;;;3.30;;
16928;SDS011;8581;47.334;11.190;2022-12-07T00:32:12;4.03;;;3.27;;
16928;SDS011;8581;47.334;11.190;2022-12-07T00:34:43;3.57;;;3.27;;
16928;SDS011;8581;47.334;11.190;2022-12-07T00:37:15;3.90;;;3.23;;
16928;SDS011;8581;47.334;11.190;2022-12-07T00:39:47;3.17;;;2.87;;
16928;SDS011;8581;47.334;11.190;2022-12-07T00:42:18;3.43;;;3.13;;
16928;SDS011;8581;47.334;11.190;2022-12-07T00:44:50;3.83;;;3.53;;
16928;SDS011;8581;47.334;11.190;2022-12-07T00:47:21;3.73;;;3.43;;
16928;SDS011;8581;47.334;11.190;2022-12-07T00:49:53;3.87;;;3.57;;
16928;SDS011;8581;47.334;11.190;2022-12-07T00:52:25;3.60;;;3.30;;
16928;SDS011;8581;47.334;11.190;2022-12-07T00:54:56;3.83;;;3.50;;
16928;SDS011;8581;47.334;11.190;2022-12-07T00:57:28;3.90;;;3.53;;
16928;SDS011;8581;47.334;11.190;2022-12-07T00:59:59;4.40;;;4.00;;
16928;SDS011;8581;47.334;11.190;2022-12-07T01:02:31;4.50;;;4.10;;
16928;SDS011;8581;47.334;11.190;2022-12-07T01:05:03;4.17;;;3.83;;
16928;SDS011;8581;47.334;11.190;2022-12-07T01:07:37;4.70;;;4.30;;
16928;SDS011;8581;47.334;11.190;2022-12-07T01:10:07;5.13;;;4.67;;
16928;SDS011;8581;47.334;11.190;2022-12-07T01:12:39;4.43;;;4.13;;
16928;SDS011;8581;47.334;11.190;2022-12-07T01:15:11;4.97;;;4.47;;
16928;SDS011;8581;47.334;11.190;2022-12-07T01:17:42;6.17;;;5.30;;
16928;SDS011;8581;47.334;11.190;2022-12-07T01:20:14;5.83;;;4.93;;
16928;SDS011;8581;47.334;11.190;2022-12-07T01:22:45;5.53;;;5.03;;
16928;SDS011;8581;47.334;11.190;2022-12-07T01:25:17;5.07;;;4.57;;
16928;SDS011;8581;47.334;11.190;2022-12-07T01:27:49;5.80;;;5.30;;
16928;SDS011;8581;47.334;11.190;2022-12-07T01:30:20;6.67;;;6.00;;
16928;SDS011;8581;47.334;11.190;2022-12-07T01:32:52;7.00;;;6.07;;
16928;SDS011;8581;47.334;11.190;2022-12-07T01:35:23;6.53;;;5.93;;
16928;SDS011;8581;47.334;11.190;2022-12-07T01:37:55;6.67;;;6.03;;
16928;SDS011;8581;47.334;11.190;2022-12-07T01:40:27;6.43;;;5.83;;
16928;SDS011;8581;47.334;11.190;2022-12-07T01:42:58;6.40;;;5.80;;
16928;SDS011;8581;47.334;11.190;2022-12-07T01:45:36;6.53;;;5.93;;
16928;SDS011;8581;47.334;11.190;2022-12-07T01:48:08;6.37;;;5.77;;
16928;SDS011;8581;47.334;11.190;2022-12-07T01:50:40;6.00;;;5.40;;
16928;SDS011;8581;47.334;11.190;2022-12-07T01:53:11;6.87;;;5.57;;
16928;SDS011;8581;47.334;11.190;2022-12-07T01:55:43;6.53;;;5.93;;
16928;SDS011;8581;47.334;11.190;2022-12-07T01:58:14;6.40;;;5.80;;
16928;SDS011;8581;47.334;11.190;2022-12-07T02:00:46;7.60;;;6.47;;
16928;SDS011;8581;47.334;11.190;2022-12-07T02:03:19;7.20;;;6.50;;
16928;SDS011;8581;47.334;11.190;2022-12-07T02:05:56;7.80;;;7.03;;
16928;SDS011;8581;47.334;11.190;2022-12-07T02:08:28;7.43;;;6.73;;
16928;SDS011;8581;47.334;11.190;2022-12-07T02:11:00;7.50;;;6.80;;
16928;SDS011;8581;47.334;11.190;2022-12-07T02:13:32;7.50;;;6.80;;
16928;SDS011;8581;47.334;11.190;2022-12-07T02:16:06;8.07;;;7.37;;
16928;SDS011;8581;47.334;11.190;2022-12-07T02:18:52;7.20;;;6.57;;
16928;SDS011;8581;47.334;11.190;2022-12-07T02:21:29;64.00;;;43.60;;
16928;SDS011;8581;47.334;11.190;2022-12-07T02:24:24;13.27;;;11.70;;
16928;SDS011;8581;47.334;11.190;2022-12-07T02:27:06;9.23;;;8.10;;
16928;SDS011;8581;47.334;11.190;2022-12-07T02:29:46;8.60;;;7.80;;
16928;SDS011;8581;47.334;11.190;2022-12-07T02:32:20;8.77;;;7.87;;
16928;SDS011;8581;47.334;11.190;2022-12-07T02:34:50;8.50;;;7.70;;
16928;SDS011;8581;47.334;11.190;2022-12-07T02:37:25;8.30;;;7.47;;
16928;SDS011;8581;47.334;11.190;2022-12-07T02:40:18;9.03;;;8.17;;
16928;SDS011;8581;47.334;11.190;2022-12-07T02:42:49;9.27;;;8.30;;
16928;SDS011;8581;47.334;11.190;2022-12-07T02:45:21;8.93;;;7.77;;
16928;SDS011;8581;47.334;11.190;2022-12-07T02:47:52;9.27;;;8.47;;
16928;SDS011;8581;47.334;11.190;2022-12-07T02:50:23;10.20;;;8.97;;
16928;SDS011;8581;47.334;11.190;2022-12-07T02:52:55;9.33;;;8.43;;
16928;SDS011;8581;47.334;11.190;2022-12-07T02:55:30;9.33;;;8.43;;
16928;SDS011;8581;47.334;11.190;2022-12-07T02:58:05;9.13;;;8.27;;
16928;SDS011;8581;47.334;11.190;2022-12-07T03:00:52;9.73;;;8.83;;
16928;SDS011;8581;47.334;11.190;2022-12-07T03:03:23;9.70;;;8.77;;
16928;SDS011;8581;47.334;11.190;2022-12-07T03:06:04;9.77;;;8.70;;
16928;SDS011;8581;47.334;11.190;2022-12-07T03:08:41;9.50;;;8.60;;
16928;SDS011;8581;47.334;11.190;2022-12-07T03:11:10;8.93;;;8.03;;
16928;SDS011;8581;47.334;11.190;2022-12-07T03:13:49;9.87;;;8.87;;
16928;SDS011;8581;47.334;11.190;2022-12-07T03:16:21;9.70;;;8.80;;
16928;SDS011;8581;47.334;11.190;2022-12-07T03:18:55;10.07;;;9.07;;
16928;SDS011;8581;47.334;11.190;2022-12-07T03:21:32;9.30;;;8.40;;
16928;SDS011;8581;47.334;11.190;2022-12-07T03:24:04;9.70;;;8.70;;
16928;SDS011;8581;47.334;11.190;2022-12-07T03:26:36;10.27;;;9.27;;
16928;SDS011;8581;47.334;11.190;2022-12-07T03:29:11;10.27;;;9.27;;
16928;SDS011;8581;47.334;11.190;2022-12-07T03:31:41;10.27;;;9.27;;
16928;SDS011;8581;47.334;11.190;2022-12-07T03:34:14;11.13;;;10.03;;
16928;SDS011;8581;47.334;11.190;2022-12-07T03:36:48;10.70;;;9.53;;
16928;SDS011;8581;47.334;11.190;2022-12-07T03:39:22;10.17;;;9.17;;
16928;SDS011;8581;47.334;11.190;2022-12-07T03:41:53;10.90;;;9.13;;
16928;SDS011;8581;47.334;11.190;2022-12-07T03:44:24;10.53;;;9.43;;
16928;SDS011;8581;47.334;11.190;2022-12-07T03:47:00;10.67;;;9.57;;
16928;SDS011;8581;47.334;11.190;2022-12-07T03:49:37;10.40;;;9.37;;
16928;SDS011;8581;47.334;11.190;2022-12-07T03:52:24;10.47;;;9.47;;
16928;SDS011;8581;47.334;11.190;2022-12-07T03:55:27;10.37;;;9.37;;
16928;SDS011;8581;47.334;11.190;2022-12-07T03:57:58;11.07;;;9.97;;
16928;SDS011;8581;47.334;11.190;2022-12-07T04:00:30;11.60;;;9.97;;
16928;SDS011;8581;47.334;11.190;2022-12-07T04:03:01;10.30;;;9.30;;
16928;SDS011;8581;47.334;11.190;2022-12-07T04:05:33;10.80;;;9.70;;
16928;SDS011;8581;47.334;11.190;2022-12-07T04:08:05;10.50;;;9.40;;
16928;SDS011;8581;47.334;11.190;2022-12-07T04:10:36;10.37;;;9.37;;
16928;SDS011;8581;47.334;11.190;2022-12-07T04:13:08;11.00;;;9.90;;
16928;SDS011;8581;47.334;11.190;2022-12-07T04:15:39;10.03;;;9.03;;
16928;SDS011;8581;47.334;11.190;2022-12-07T04:18:11;9.00;;;8.10;;
16928;SDS011;8581;47.334;11.190;2022-12-07T04:20:43;9.40;;;8.40;;
16928;SDS011;8581;47.334;11.190;2022-12-07T04:23:14;9.53;;;8.63;;
16928;SDS011;8581;47.334;11.190;2022-12-07T04:25:47;8.73;;;7.80;;
16928;SDS011;8581;47.334;11.190;2022-12-07T04:28:17;7.90;;;7.10;;
16928;SDS011;8581;47.334;11.190;2022-12-07T04:30:49;8.90;;;8.03;;
16928;SDS011;8581;47.334;11.190;2022-12-07T04:33:20;16.03;;;9.33;;
16928;SDS011;8581;47.334;11.190;2022-12-07T04:35:52;14.60;;;8.13;;
16928;SDS011;8581;47.334;11.190;2022-12-07T04:38:24;12.70;;;8.10;;
16928;SDS011;8581;47.334;11.190;2022-12-07T04:40:55;8.50;;;7.70;;
16928;SDS011;8581;47.334;11.190;2022-12-07T04:43:27;9.47;;;8.57;;
16928;SDS011;8581;47.334;11.190;2022-12-07T04:45:58;7.47;;;6.77;;
16928;SDS011;8581;47.334;11.190;2022-12-07T04:48:31;8.97;;;6.97;;
16928;SDS011;8581;47.334;11.190;2022-12-07T04:51:03;7.37;;;6.67;;
16928;SDS011;8581;47.334;11.190;2022-12-07T04:53:35;8.23;;;7.33;;
16928;SDS011;8581;47.334;11.190;2022-12-07T04:56:07;7.60;;;6.80;;
16928;SDS011;8581;47.334;11.190;2022-12-07T04:58:38;7.93;;;7.23;;
16928;SDS011;8581;47.334;11.190;2022-12-07T05:01:10;7.97;;;7.17;;
16928;SDS011;8581;47.334;11.190;2022-12-07T05:03:42;8.00;;;7.20;;
16928;SDS011;8581;47.334;11.190;2022-12-07T05:06:13;7.87;;;7.07;;
16928;SDS011;8581;47.334;11.190;2022-12-07T05:08:45;7.77;;;7.07;;
16928;SDS011;8581;47.334;11.190;2022-12-07T05:11:16;8.03;;;7.23;;
16928;SDS011;8581;47.334;11.190;2022-12-07T05:13:54;7.67;;;6.97;;
16928;SDS011;8581;47.334;11.190;2022-12-07T05:16:25;7.40;;;6.70;;
16928;SDS011;8581;47.334;11.190;2022-12-07T05:18:57;8.67;;;7.47;;
16928;SDS011;8581;47.334;11.190;2022-12-07T05:21:29;8.10;;;7.30;;
16928;SDS011;8581;47.334;11.190;2022-12-07T05:24:00;7.37;;;6.67;;
16928;SDS011;8581;47.334;11.190;2022-12-07T05:26:32;7.97;;;7.17;;
16928;SDS011;8581;47.334;11.190;2022-12-07T05:29:04;7.60;;;6.90;;
16928;SDS011;8581;47.334;11.190;2022-12-07T05:31:35;8.87;;;8.07;;
16928;SDS011;8581;47.334;11.190;2022-12-07T05:34:07;8.63;;;7.50;;
16928;SDS011;8581;47.334;11.190;2022-12-07T05:36:38;8.23;;;7.40;;
16928;SDS011;8581;47.334;11.190;2022-12-07T05:39:10;8.50;;;7.67;;
16928;SDS011;8581;47.334;11.190;2022-12-07T05:41:42;8.47;;;7.60;;
16928;SDS011;8581;47.334;11.190;2022-12-07T05:44:19;8.97;;;7.50;;
16928;SDS011;8581;47.334;11.190;2022-12-07T05:46:50;7.90;;;7.10;;
16928;SDS011;8581;47.334;11.190;2022-12-07T05:49:22;8.67;;;7.67;;
16928;SDS011;8581;47.334;11.190;2022-12-07T05:51:54;8.47;;;7.67;;
16928;SDS011;8581;47.334;11.190;2022-12-07T05:54:25;9.23;;;8.03;;
16928;SDS011;8581;47.334;11.190;2022-12-07T05:56:57;12.23;;;10.30;;
16928;SDS011;8581;47.334;11.190;2022-12-07T05:59:28;9.80;;;8.80;;
16928;SDS011;8581;47.334;11.190;2022-12-07T06:02:02;8.73;;;7.93;;
16928;SDS011;8581;47.334;11.190;2022-12-07T06:04:34;8.67;;;7.77;;
16928;SDS011;8581;47.334;11.190;2022-12-07T06:07:04;8.63;;;7.73;;
16928;SDS011;8581;47.334;11.190;2022-12-07T06:09:36;8.90;;;8.00;;
16928;SDS011;8581;47.334;11.190;2022-12-07T06:12:09;9.07;;;8.17;;
16928;SDS011;8581;47.334;11.190;2022-12-07T06:14:45;9.40;;;8.47;;
16928;SDS011;8581;47.334;11.190;2022-12-07T06:17:16;9.70;;;8.70;;
16928;SDS011;8581;47.334;11.190;2022-12-07T06:19:48;9.47;;;8.60;;
16928;SDS011;8581;47.334;11.190;2022-12-07T06:22:19;9.37;;;8.47;;
16928;SDS011;8581;47.334;11.190;2022-12-07T06:24:51;9.67;;;8.67;;
16928;SDS011;8581;47.334;11.190;2022-12-07T06:27:23;10.50;;;9.50;;
16928;SDS011;8581;47.334;11.190;2022-12-07T06:29:54;10.67;;;9.30;;
16928;SDS011;8581;47.334;11.190;2022-12-07T06:32:26;10.93;;;9.53;;
16928;SDS011;8581;47.334;11.190;2022-12-07T06:34:58;10.37;;;9.20;;
16928;SDS011;8581;47.334;11.190;2022-12-07T06:37:29;10.87;;;9.77;;
16928;SDS011;8581;47.334;11.190;2022-12-07T06:40:01;11.57;;;10.30;;
16928;SDS011;8581;47.334;11.190;2022-12-07T06:42:33;10.50;;;9.40;;
16928;SDS011;8581;47.334;11.190;2022-12-07T06:45:05;12.70;;;10.63;;
16928;SDS011;8581;47.334;11.190;2022-12-07T06:47:37;11.97;;;10.77;;
16928;SDS011;8581;47.334;11.190;2022-12-07T06:50:09;12.03;;;10.80;;
16928;SDS011;8581;47.334;11.190;2022-12-07T06:52:41;12.50;;;10.30;;
16928;SDS011;8581;47.334;11.190;2022-12-07T06:55:12;13.27;;;11.03;;
16928;SDS011;8581;47.334;11.190;2022-12-07T06:57:44;11.07;;;9.97;;
16928;SDS011;8581;47.334;11.190;2022-12-07T07:00:16;12.90;;;11.53;;
16928;SDS011;8581;47.334;11.190;2022-12-07T07:02:48;11.60;;;10.40;;
16928;SDS011;8581;47.334;11.190;2022-12-07T07:05:20;12.70;;;10.77;;
16928;SDS011;8581;47.334;11.190;2022-12-07T07:07:52;28.70;;;20.30;;
16928;SDS011;8581;47.334;11.190;2022-12-07T07:10:24;37.53;;;25.43;;
16928;SDS011;8581;47.334;11.190;2022-12-07T07:12:55;24.90;;;18.83;;
16928;SDS011;8581;47.334;11.190;2022-12-07T07:15:27;15.30;;;13.53;;
16928;SDS011;8581;47.334;11.190;2022-12-07T07:17:59;16.47;;;13.03;;
16928;SDS011;8581;47.334;11.190;2022-12-07T07:20:30;14.67;;;11.63;;
16928;SDS011;8581;47.334;11.190;2022-12-07T07:23:02;12.00;;;10.73;;
16928;SDS011;8581;47.334;11.190;2022-12-07T07:25:33;11.17;;;10.03;;
16928;SDS011;8581;47.334;11.190;2022-12-07T07:28:05;11.53;;;10.10;;
16928;SDS011;8581;47.334;11.190;2022-12-07T07:30:37;13.23;;;9.87;;
16928;SDS011;8581;47.334;11.190;2022-12-07T07:33:09;15.77;;;13.77;;
16928;SDS011;8581;47.334;11.190;2022-12-07T07:35:40;16.40;;;12.37;;
16928;SDS011;8581;47.334;11.190;2022-12-07T07:38:11;11.17;;;10.00;;
16928;SDS011;8581;47.334;11.190;2022-12-07T07:40:43;11.83;;;9.63;;
16928;SDS011;8581;47.334;11.190;2022-12-07T07:43:15;14.10;;;11.63;;
16928;SDS011;8581;47.334;11.190;2022-12-07T07:45:46;12.40;;;9.30;;
16928;SDS011;8581;47.334;11.190;2022-12-07T07:48:18;9.80;;;8.80;;
16928;SDS011;8581;47.334;11.190;2022-12-07T07:50:50;11.83;;;10.30;;
16928;SDS011;8581;47.334;11.190;2022-12-07T07:53:21;11.47;;;9.57;;
16928;SDS011;8581;47.334;11.190;2022-12-07T07:55:54;10.40;;;9.30;;
16928;SDS011;8581;47.334;11.190;2022-12-07T07:58:24;10.10;;;9.03;;
16928;SDS011;8581;47.334;11.190;2022-12-07T08:00:56;10.00;;;8.37;;
16928;SDS011;8581;47.334;11.190;2022-12-07T08:03:28;8.27;;;7.40;;
16928;SDS011;8581;47.334;11.190;2022-12-07T08:05:59;8.33;;;7.40;;
16928;SDS011;8581;47.334;11.190;2022-12-07T08:08:31;8.70;;;7.70;;
16928;SDS011;8581;47.334;11.190;2022-12-07T08:11:05;9.80;;;7.70;;
16928;SDS011;8581;47.334;11.190;2022-12-07T08:13:36;9.07;;;8.10;;
16928;SDS011;8581;47.334;11.190;2022-12-07T08:16:09;11.43;;;8.27;;
16928;SDS011;8581;47.334;11.190;2022-12-07T08:18:39;8.43;;;7.63;;
16928;SDS011;8581;47.334;11.190;2022-12-07T08:21:12;7.80;;;7.10;;
16928;SDS011;8581;47.334;11.190;2022-12-07T08:23:43;7.90;;;7.10;;
16928;SDS011;8581;47.334;11.190;2022-12-07T08:26:15;7.87;;;7.17;;
16928;SDS011;8581;47.334;11.190;2022-12-07T08:28:46;7.63;;;6.90;;
16928;SDS011;8581;47.334;11.190;2022-12-07T08:31:17;6.47;;;5.80;;
16928;SDS011;8581;47.334;11.190;2022-12-07T08:33:49;8.30;;;6.63;;
16928;SDS011;8581;47.334;11.190;2022-12-07T08:36:21;6.57;;;5.87;;
16928;SDS011;8581;47.334;11.190;2022-12-07T08:38:52;6.73;;;5.97;;
16928;SDS011;8581;47.334;11.190;2022-12-07T08:41:24;6.37;;;5.70;;
16928;SDS011;8581;47.334;11.190;2022-12-07T08:43:55;6.57;;;5.70;;
16928;SDS011;8581;47.334;11.190;2022-12-07T08:49:08;6.47;;;5.43;;
16928;SDS011;8581;47.334;11.190;2022-12-07T08:51:39;4.53;;;4.13;;
16928;SDS011;8581;47.334;11.190;2022-12-07T08:54:11;7.33;;;4.70;;
16928;SDS011;8581;47.334;11.190;2022-12-07T08:56:42;6.07;;;5.07;;
16928;SDS011;8581;47.334;11.190;2022-12-07T08:59:14;6.57;;;5.33;;
16928;SDS011;8581;47.334;11.190;2022-12-07T09:01:45;5.57;;;4.80;;
16928;SDS011;8581;47.334;11.190;2022-12-07T09:04:17;4.73;;;4.10;;
16928;SDS011;8581;47.334;11.190;2022-12-07T09:06:48;4.53;;;4.13;;
16928;SDS011;8581;47.334;11.190;2022-12-07T09:09:20;6.63;;;4.43;;
16928;SDS011;8581;47.334;11.190;2022-12-07T09:11:52;5.20;;;4.03;;
16928;SDS011;8581;47.334;11.190;2022-12-07T09:14:23;3.27;;;2.97;;
16928;SDS011;8581;47.334;11.190;2022-12-07T09:16:55;5.33;;;3.43;;
16928;SDS011;8581;47.334;11.190;2022-12-07T09:19:26;5.70;;;3.20;;
16928;SDS011;8581;47.334;11.190;2022-12-07T09:21:58;4.57;;;3.87;;
16928;SDS011;8581;47.334;11.190;2022-12-07T09:24:30;4.43;;;3.70;;
16928;SDS011;8581;47.334;11.190;2022-12-07T09:27:01;4.43;;;4.03;;
16928;SDS011;8581;47.334;11.190;2022-12-07T09:29:33;3.87;;;3.43;;
16928;SDS011;8581;47.334;11.190;2022-12-07T09:32:04;3.20;;;2.90;;
16928;SDS011;8581;47.334;11.190;2022-12-07T09:34:36;3.60;;;3.07;;
16928;SDS011;8581;47.334;11.190;2022-12-07T09:37:08;3.40;;;3.10;;
16928;SDS011;8581;47.334;11.190;2022-12-07T09:39:39;3.43;;;3.13;;
16928;SDS011;8581;47.334;11.190;2022-12-07T09:42:12;4.27;;;3.83;;
16928;SDS011;8581;47.334;11.190;2022-12-07T09:44:42;4.67;;;3.57;;
16928;SDS011;8581;47.334;11.190;2022-12-07T09:47:14;4.33;;;3.70;;
16928;SDS011;8581;47.334;11.190;2022-12-07T09:49:46;3.30;;;3.00;;
16928;SDS011;8581;47.334;11.190;2022-12-07T09:52:19;4.63;;;3.63;;
16928;SDS011;8581;47.334;11.190;2022-12-07T09:54:50;4.43;;;3.43;;
16928;SDS011;8581;47.334;11.190;2022-12-07T09:57:25;3.03;;;2.73;;
16928;SDS011;8581;47.334;11.190;2022-12-07T09:59:53;5.77;;;2.50;;
16928;SDS011;8581;47.334;11.190;2022-12-07T10:02:38;3.33;;;2.60;;
16928;SDS011;8581;47.334;11.190;2022-12-07T10:05:13;4.07;;;2.70;;
16928;SDS011;8581;47.334;11.190;2022-12-07T10:07:43;3.20;;;2.60;;
16928;SDS011;8581;47.334;11.190;2022-12-07T10:10:17;4.30;;;3.20;;
16928;SDS011;8581;47.334;11.190;2022-12-07T10:12:55;2.93;;;2.60;;
16928;SDS011;8581;47.334;11.190;2022-12-07T10:18:18;3.73;;;3.10;;
16928;SDS011;8581;47.334;11.190;2022-12-07T10:20:48;4.10;;;2.70;;
16928;SDS011;8581;47.334;11.190;2022-12-07T10:23:20;2.07;;;1.87;;
16928;SDS011;8581;47.334;11.190;2022-12-07T10:25:52;2.93;;;2.17;;
16928;SDS011;8581;47.334;11.190;2022-12-07T10:28:27;3.63;;;2.43;;
16928;SDS011;8581;47.334;11.190;2022-12-07T10:30:59;5.13;;;2.73;;
16928;SDS011;8581;47.334;11.190;2022-12-07T10:33:35;4.90;;;3.00;;
16928;SDS011;8581;47.334;11.190;2022-12-07T10:38:52;3.87;;;2.90;;
16928;SDS011;8581;47.334;11.190;2022-12-07T10:41:23;3.70;;;2.47;;
16928;SDS011;8581;47.334;11.190;2022-12-07T10:43:55;3.13;;;2.83;;
16928;SDS011;8581;47.334;11.190;2022-12-07T10:46:29;4.03;;;3.23;;
16928;SDS011;8581;47.334;11.190;2022-12-07T10:49:06;3.93;;;3.13;;
16928;SDS011;8581;47.334;11.190;2022-12-07T10:51:52;3.87;;;3.47;;
16928;SDS011;8581;47.334;11.190;2022-12-07T10:54:30;3.23;;;2.93;;
16928;SDS011;8581;47.334;11.190;2022-12-07T11:00:19;2.83;;;2.63;;
16928;SDS011;8581;47.334;11.190;2022-12-07T11:07:05;4.20;;;2.80;;
16928;SDS011;8581;47.334;11.190;2022-12-07T11:08:47;3.83;;;2.90;;
16928;SDS011;8581;47.334;11.190;2022-12-07T11:11:38;3.20;;;2.90;;
16928;SDS011;8581;47.334;11.190;2022-12-07T11:16:55;4.20;;;2.90;;
16928;SDS011;8581;47.334;11.190;2022-12-07T11:19:30;3.07;;;2.80;;
16928;SDS011;8581;47.334;11.190;2022-12-07T11:22:17;2.60;;;2.40;;
16928;SDS011;8581;47.334;11.190;2022-12-07T11:24:50;3.13;;;2.80;;
16928;SDS011;8581;47.334;11.190;2022-12-07T11:27:26;2.77;;;2.57;;
16928;SDS011;8581;47.334;11.190;2022-12-07T11:30:08;2.87;;;2.67;;
16928;SDS011;8581;47.334;11.190;2022-12-07T11:32:59;3.80;;;3.30;;
16928;SDS011;8581;47.334;11.190;2022-12-07T11:38:09;3.17;;;2.83;;
16928;SDS011;8581;47.334;11.190;2022-12-07T11:40:48;3.13;;;2.83;;
16928;SDS011;8581;47.334;11.190;2022-12-07T11:43:24;4.70;;;2.50;;
16928;SDS011;8581;47.334;11.190;2022-12-07T11:46:00;2.60;;;2.40;;
16928;SDS011;8581;47.334;11.190;2022-12-07T11:48:42;4.23;;;2.50;;
16928;SDS011;8581;47.334;11.190;2022-12-07T11:51:18;2.73;;;2.40;;
16928;SDS011;8581;47.334;11.190;2022-12-07T11:53:51;3.00;;;2.70;;
16928;SDS011;8581;47.334;11.190;2022-12-07T11:56:22;4.40;;;2.63;;
16928;SDS011;8581;47.334;11.190;2022-12-07T11:58:55;5.80;;;2.37;;
16928;SDS011;8581;47.334;11.190;2022-12-07T12:01:48;1.70;;;1.60;;
16928;SDS011;8581;47.334;11.190;2022-12-07T12:04:25;2.57;;;1.60;;
16928;SDS011;8581;47.334;11.190;2022-12-07T12:06:56;2.10;;;1.80;;
16928;SDS011;8581;47.334;11.190;2022-12-07T12:09:31;2.70;;;2.50;;
16928;SDS011;8581;47.334;11.190;2022-12-07T12:12:13;3.17;;;2.50;;
16928;SDS011;8581;47.334;11.190;2022-12-07T12:15:03;2.83;;;2.63;;
16928;SDS011;8581;47.334;11.190;2022-12-07T12:17:38;3.53;;;3.00;;
16928;SDS011;8581;47.334;11.190;2022-12-07T12:23:00;2.93;;;2.73;;
16928;SDS011;8581;47.334;11.190;2022-12-07T12:25:36;2.30;;;2.10;;
16928;SDS011;8581;47.334;11.190;2022-12-07T12:28:15;1.83;;;1.60;;
16928;SDS011;8581;47.334;11.190;2022-12-07T12:30:39;1.10;;;1.10;;
16928;SDS011;8581;47.334;11.190;2022-12-07T12:33:25;1.03;;;1.03;;
16928;SDS011;8581;47.334;11.190;2022-12-07T12:35:59;1.20;;;1.10;;
16928;SDS011;8581;47.334;11.190;2022-12-07T12:38:27;1.30;;;1.20;;
16928;SDS011;8581;47.334;11.190;2022-12-07T12:40:57;1.50;;;1.40;;
16928;SDS011;8581;47.334;11.190;2022-12-07T12:57:30;1.57;;;1.33;;
16928;SDS011;8581;47.334;11.190;2022-12-07T13:02:55;1.60;;;1.50;;
16928;SDS011;8581;47.334;11.190;2022-12-07T13:05:28;1.57;;;1.47;;
16928;SDS011;8581;47.334;11.190;2022-12-07T13:08:01;2.80;;;1.40;;
16928;SDS011;8581;47.334;11.190;2022-12-07T13:10:49;5.77;;;2.20;;
16928;SDS011;8581;47.334;11.190;2022-12-07T13:21:51;3.37;;;1.70;;
16928;SDS011;8581;47.334;11.190;2022-12-07T13:24:23;3.03;;;1.87;;
16928;SDS011;8581;47.334;11.190;2022-12-07T13:26:55;1.77;;;1.67;;
16928;SDS011;8581;47.334;11.190;2022-12-07T13:29:27;3.20;;;1.90;;
16928;SDS011;8581;47.334;11.190;2022-12-07T13:31:59;2.90;;;2.00;;
16928;SDS011;8581;47.334;11.190;2022-12-07T13:34:31;2.27;;;1.80;;
16928;SDS011;8581;47.334;11.190;2022-12-07T13:37:24;1.80;;;1.70;;
16928;SDS011;8581;47.334;11.190;2022-12-07T13:39:51;1.80;;;1.70;;
16928;SDS011;8581;47.334;11.190;2022-12-07T13:42:24;2.00;;;1.90;;
16928;SDS011;8581;47.334;11.190;2022-12-07T13:44:56;2.60;;;2.00;;
16928;SDS011;8581;47.334;11.190;2022-12-07T13:50:25;1.90;;;1.80;;
16928;SDS011;8581;47.334;11.190;2022-12-07T13:52:56;2.30;;;2.10;;
16928;SDS011;8581;47.334;11.190;2022-12-07T13:55:30;2.87;;;2.57;;
16928;SDS011;8581;47.334;11.190;2022-12-07T13:58:01;2.50;;;2.30;;
16928;SDS011;8581;47.334;11.190;2022-12-07T14:00:33;2.30;;;2.10;;
16928;SDS011;8581;47.334;11.190;2022-12-07T14:03:36;2.30;;;2.10;;
16928;SDS011;8581;47.334;11.190;2022-12-07T14:08:35;2.47;;;2.27;;
16928;SDS011;8581;47.334;11.190;2022-12-07T14:11:06;2.20;;;2.10;;
16928;SDS011;8581;47.334;11.190;2022-12-07T14:13:39;2.20;;;2.00;;
16928;SDS011;8581;47.334;11.190;2022-12-07T14:18:59;3.23;;;2.20;;
16928;SDS011;8581;47.334;11.190;2022-12-07T14:21:31;2.70;;;2.20;;
16928;SDS011;8581;47.334;11.190;2022-12-07T14:24:07;2.33;;;2.13;;
16928;SDS011;8581;47.334;11.190;2022-12-07T14:26:39;2.50;;;2.17;;
16928;SDS011;8581;47.334;11.190;2022-12-07T14:31:51;2.60;;;2.20;;
16928;SDS011;8581;47.334;11.190;2022-12-07T14:34:22;2.83;;;2.40;;
16928;SDS011;8581;47.334;11.190;2022-12-07T14:36:54;2.53;;;2.33;;
16928;SDS011;8581;47.334;11.190;2022-12-07T14:39:25;2.60;;;2.40;;
16928;SDS011;8581;47.334;11.190;2022-12-07T14:41:57;2.60;;;2.40;;
16928;SDS011;8581;47.334;11.190;2022-12-07T14:44:29;2.70;;;2.50;;
16928;SDS011;8581;47.334;11.190;2022-12-07T14:47:00;2.43;;;2.23;;
16928;SDS011;8581;47.334;11.190;2022-12-07T14:49:32;2.73;;;2.53;;
16928;SDS011;8581;47.334;11.190;2022-12-07T14:52:04;2.93;;;2.73;;
16928;SDS011;8581;47.334;11.190;2022-12-07T14:54:35;3.50;;;3.20;;
16928;SDS011;8581;47.334;11.190;2022-12-07T14:57:08;3.83;;;2.83;;
16928;SDS011;8581;47.334;11.190;2022-12-07T14:59:38;3.90;;;3.30;;
16928;SDS011;8581;47.334;11.190;2022-12-07T15:02:11;4.50;;;3.47;;
16928;SDS011;8581;47.334;11.190;2022-12-07T15:04:42;3.90;;;3.60;;
16928;SDS011;8581;47.334;11.190;2022-12-07T15:07:16;4.80;;;3.47;;
16928;SDS011;8581;47.334;11.190;2022-12-07T15:09:46;4.17;;;3.77;;
16928;SDS011;8581;47.334;11.190;2022-12-07T15:12:17;4.00;;;3.60;;
16928;SDS011;8581;47.334;11.190;2022-12-07T15:14:49;3.67;;;3.37;;
16928;SDS011;8581;47.334;11.190;2022-12-07T15:17:20;4.67;;;4.27;;
16928;SDS011;8581;47.334;11.190;2022-12-07T15:19:52;4.33;;;3.93;;
16928;SDS011;8581;47.334;11.190;2022-12-07T15:22:24;4.53;;;4.13;;
16928;SDS011;8581;47.334;11.190;2022-12-07T15:24:55;4.93;;;4.43;;
16928;SDS011;8581;47.334;11.190;2022-12-07T15:27:27;4.17;;;3.83;;
16928;SDS011;8581;47.334;11.190;2022-12-07T15:29:58;4.47;;;4.07;;
16928;SDS011;8581;47.334;11.190;2022-12-07T15:32:30;4.73;;;4.33;;
16928;SDS011;8581;47.334;11.190;2022-12-07T15:35:01;4.83;;;4.43;;
16928;SDS011;8581;47.334;11.190;2022-12-07T15:37:33;4.50;;;4.10;;
16928;SDS011;8581;47.334;11.190;2022-12-07T15:40:06;5.20;;;4.73;;
16928;SDS011;8581;47.334;11.190;2022-12-07T15:42:38;4.40;;;4.00;;
16928;SDS011;8581;47.334;11.190;2022-12-07T15:45:10;4.53;;;4.13;;
16928;SDS011;8581;47.334;11.190;2022-12-07T15:47:43;4.93;;;4.53;;
16928;SDS011;8581;47.334;11.190;2022-12-07T15:50:14;4.70;;;4.30;;
16928;SDS011;8581;47.334;11.190;2022-12-07T15:52:45;4.23;;;3.93;;
16928;SDS011;8581;47.334;11.190;2022-12-07T15:55:17;5.33;;;4.77;;
16928;SDS011;8581;47.334;11.190;2022-12-07T15:57:48;4.30;;;3.90;;
16928;SDS011;8581;47.334;11.190;2022-12-07T16:00:20;5.10;;;4.60;;
16928;SDS011;8581;47.334;11.190;2022-12-07T16:02:52;5.27;;;4.77;;
16928;SDS011;8581;47.334;11.190;2022-12-07T16:05:23;4.87;;;4.47;;
16928;SDS011;8581;47.334;11.190;2022-12-07T16:07:55;5.77;;;5.17;;
16928;SDS011;8581;47.334;11.190;2022-12-07T16:10:27;5.30;;;4.80;;
16928;SDS011;8581;47.334;11.190;2022-12-07T16:12:58;6.07;;;5.47;;
16928;SDS011;8581;47.334;11.190;2022-12-07T16:15:30;5.20;;;4.70;;
16928;SDS011;8581;47.334;11.190;2022-12-07T16:18:01;4.63;;;4.23;;